首页
METAR-TAF:

METAR-TAF

机场 :

加尔各答, 印度

内塔吉·苏巴斯·钱德拉·鲍斯国际机场

纬度: 22-39N, 经度: 088-27E, 海拔: 4米

当前天气观测

该预报发布于16分钟前的05:30 UTC
风速6节,风向西转西南
温度 32°C
湿度 36%
气压 1013 hPa
能見度: 3500

METAR: VECC 250530Z 25006KT 3500 HZ NSC 32/15 Q1013 NOSIG

时间: 11:16 (05:46 UTC)

预报

该预报发布于6小时和46分钟前的23:00 UTC
预报有效从25日的 00点(UTC)到 26日的 06点(UTC)
风速5节,风向南转西南
能見度: 1500
轻雾
成为
从 25日的 03点(UTC)到 05日的 05点(UTC)
能見度: 2500
成为
从 25日的 07点(UTC)到 25日的 09点(UTC)
能見度: 3500
成为
从 25日的 14点(UTC)到 25日的 16点(UTC)
风速节,风向
能見度: 2800
成为
从 25日的 23点(UTC)到 26日的 01点(UTC)
能見度: 1500
轻雾
成为
从 26日的 03点(UTC)到 26日的 05点(UTC)
风速5节,风向
能見度: 3000

TAF: VECC 242300Z 2500/2606 20005KT 1500 BR NSC BECMG 2503/0505 2500 HZ BECMG 2507/2509 3500 FU BECMG 2514/2516 00000KT 2800 HZ BECMG 2523/2601 1500 BR BECMG 2603/2605 18005KT 3000 HZ

超过4000个机场的气象观测和天气预报(METAR&TAF报告)。

可查询的气象台以黄色和红色小点在地图上表示。

将鼠标移到小点上方,可查看气象台名称。

然后点击查看天气观测和预报。

如需切换地图:点击带黑十字的绿色按钮放大地图;点击带横线的绿色按钮缩小地图;或者点击绿色箭头查看邻近地区的地图。


METAR-TAF: